Time;durP1;ratioP1;P1;durP2;ratioP2;P2;SDS_P1;SDS_P2;PMS_P1;PMS_P2;Temp;Humidity;BMP_temperature;BMP_pressure;BME280_temperature;BME280_humidity;BME280_pressure;Samples;Min_cycle;Max_cycle;Signal;HPM_P1;HPM_P2
2023/02/17 00:01:28;;;;;;;;;;;;;;;-144.99;100.00;52488.84;5087994;28;19976;-74
2023/02/17 00:03:54;;;;;;;;;;;;;;;-144.99;100.00;52472.56;5086287;28;20042;-70
2023/02/17 00:06:23;;;;;;;;;;;;;;;-144.99;100.00;52452.16;5083860;28;19971;-71
2023/02/17 00:08:49;;;;;;;;;;;;;;;-144.99;100.00;52454.22;5087206;28;20039;-70
2023/02/17 00:11:16;;;;;;;;;;;;;;;-144.99;100.00;52494.97;5104883;28;19960;-70
2023/02/17 00:13:43;;;;;;;;;;;;;;;-144.99;100.00;52427.72;5092463;28;20009;-70
2023/02/17 00:16:12;;;;;;;;;;;;;;;-144.99;100.00;52460.31;5084607;28;19948;-69
2023/02/17 00:18:39;;;;;;;;;;;;;;;-144.99;100.00;52452.16;5089913;28;20003;-68
2023/02/17 00:21:13;;;;;;;;;;;;;;;-144.99;100.00;52464.41;5095057;28;20018;-76
2023/02/17 00:23:39;;;;;;;;;;;;;;;-144.99;100.00;52486.81;5088699;28;19934;-73
2023/02/17 00:26:06;;;;;;;;;;;;;;;-144.99;100.00;52462.34;5087217;28;20361;-72
2023/02/17 00:28:33;;;;;;;;;;;;;;;-144.99;100.00;52462.34;5085148;28;19938;-73
2023/02/17 00:30:59;;;;;;;;;;;;;;;-144.99;100.00;52464.41;5091953;28;19950;-70
2023/02/17 00:33:27;;;;;;;;;;;;;;;-144.99;100.00;52462.34;5092105;28;20012;-70
2023/02/17 00:35:54;;;;;;;;;;;;;;;-144.99;100.00;52444.03;5090113;28;19939;-69
2023/02/17 00:38:20;;;;;;;;;;;;;;;-144.99;100.00;52456.25;5086461;28;20031;-70
2023/02/17 00:40:47;;;;;;;;;;;;;;;-144.99;100.00;52437.91;5075000;28;19995;-70
2023/02/17 00:43:14;;;;;;;;;;;;;;;-144.99;100.00;52492.94;5085569;28;19998;-70
2023/02/17 00:45:40;;;;;;;;;;;;;;;-144.99;100.00;52480.72;5091848;28;19973;-68
2023/02/17 00:48:07;;;;;;;;;;;;;;;-144.99;100.00;52517.41;5086759;28;19989;-69
2023/02/17 00:50:35;;;;;;;;;;;;;;;-144.99;100.00;52417.53;5084065;28;20380;-69
2023/02/17 00:53:01;;;;;;;;;;;;;;;-144.99;100.00;52484.78;5095326;28;19965;-70
2023/02/17 00:55:28;;;;;;;;;;;;;;;-144.99;100.00;52452.16;5084763;28;19943;-70
2023/02/17 00:57:54;;;;;;;;;;;;;;;-144.99;100.00;52476.63;5081636;28;19948;-69
2023/02/17 01:00:21;;;;;;;;;;;;;;;-144.99;100.00;52468.47;5081420;28;21287;-69
2023/02/17 01:02:47;;;;;;;;;;;;;;;-144.99;100.00;52407.31;5086992;28;20419;-68
2023/02/17 01:05:14;;;;;;;;;;;;;;;-144.99;100.00;52472.56;5082352;28;19977;-69
2023/02/17 01:07:42;;;;;;;;;;;;;;;-144.99;100.00;52468.47;5080411;28;20042;-68
2023/02/17 01:10:09;;;;;;;;;;;;;;;-144.99;100.00;52472.56;5085553;28;20496;-72
2023/02/17 01:12:35;;;;;;;;;;;;;;;-144.99;100.00;52415.47;5085227;28;20289;-72
2023/02/17 01:15:02;;;;;;;;;;;;;;;-144.99;100.00;52427.72;5083794;28;19946;-72
2023/02/17 01:17:28;;;;;;;;;;;;;;;-144.99;100.00;52478.66;5091391;28;19986;-72
2023/02/17 01:19:55;;;;;;;;;;;;;;;-144.99;100.00;52439.94;5082849;28;19953;-72
2023/02/17 01:22:21;;;;;;;;;;;;;;;-144.99;100.00;52460.31;5087416;28;20027;-72
2023/02/17 01:24:49;;;;;;;;;;;;;;;-144.99;100.00;52501.09;5079848;28;20282;-73
2023/02/17 01:27:16;;;;;;;;;;;;;;;-144.99;100.00;52468.47;5086220;28;19995;-71
2023/02/17 01:29:44;;;;;;;;;;;;;;;-144.99;100.00;52433.81;5085846;28;19974;-72
2023/02/17 01:32:10;;;;;;;;;;;;;;;-144.99;100.00;52452.16;5083872;28;19976;-73
2023/02/17 01:34:37;;;;;;;;;;;;;;;-144.99;100.00;52474.59;5089137;28;19957;-74
2023/02/17 01:37:04;;;;;;;;;;;;;;;-144.99;100.00;52484.78;5087663;28;19940;-73
2023/02/17 01:39:30;;;;;;;;;;;;;;;-144.99;100.00;52415.47;5089966;28;19987;-69
2023/02/17 01:41:58;;;;;;;;;;;;;;;-144.99;100.00;52472.56;5091698;28;19939;-72
2023/02/17 01:44:25;;;;;;;;;;;;;;;-144.99;100.00;52446.06;5093647;28;19992;-73
2023/02/17 01:46:52;;;;;;;;;;;;;;;-144.99;100.00;52433.81;5091217;28;19943;-71
2023/02/17 01:49:27;;;;;;;;;;;;;;;-144.99;100.00;52474.59;5086970;28;19982;-74
2023/02/17 01:51:56;;;;;;;;;;;;;;;-144.99;100.00;52427.72;5080125;28;19997;-69
2023/02/17 01:54:26;;;;;;;;;;;;;;;-144.99;100.00;52452.16;5085031;28;19996;-71
2023/02/17 01:56:53;;;;;;;;;;;;;;;-144.99;100.00;52435.88;5092779;28;19971;-69
2023/02/17 01:59:21;;;;;;;;;;;;;;;-144.99;100.00;52456.25;5090073;28;19988;-69
2023/02/17 02:01:49;;;;;;;;;;;;;;;-144.99;100.00;52466.44;5088085;28;20366;-70
2023/02/17 02:04:19;;;;;;;;;;;;;;;-144.99;100.00;52464.41;5090549;28;20031;-71
2023/02/17 02:06:46;;;;;;;;;;;;;;;-144.99;100.00;52419.56;5088718;28;19947;-70
2023/02/17 02:09:15;;;;;;;;;;;;;;;-144.99;100.00;52480.72;5086989;28;19988;-69
2023/02/17 02:11:42;;;;;;;;;;;;;;;-144.99;100.00;52460.31;5081018;28;20155;-69
2023/02/17 02:14:08;;;;;;;;;;;;;;;-144.99;100.00;52431.78;5089303;28;20076;-69
2023/02/17 02:16:42;;;;;;;;;;;;;;;-144.99;100.00;52460.31;5085913;28;20055;-69
2023/02/17 02:19:19;;;;;;;;;;;;;;;-144.99;100.00;52439.94;5089440;28;20360;-70
2023/02/17 02:22:01;;;;;;;;;;;;;;;-144.99;100.00;52448.09;5085678;28;19992;-69
2023/02/17 02:24:34;;;;;;;;;;;;;;;-144.99;100.00;52480.72;5088832;28;19949;-69
2023/02/17 02:27:21;;;;;;;;;;;;;;;-144.99;100.00;52448.09;5084562;28;20006;-68
2023/02/17 02:30:07;;;;;;;;;;;;;;;-144.99;100.00;52476.63;5084193;28;19997;-67
2023/02/17 02:32:43;;;;;;;;;;;;;;;-144.99;100.00;52458.28;5083415;28;19938;-71
2023/02/17 02:35:13;;;;;;;;;;;;;;;-144.99;100.00;52452.16;5087486;28;20320;-69
2023/02/17 02:37:42;;;;;;;;;;;;;;;-144.99;100.00;52460.31;5090015;28;20438;-70
2023/02/17 02:40:11;;;;;;;;;;;;;;;-144.99;100.00;52444.03;5084834;28;20001;-70
2023/02/17 02:42:39;;;;;;;;;;;;;;;-144.99;100.00;52435.88;5088381;28;19951;-70
2023/02/17 02:45:06;;;;;;;;;;;;;;;-144.99;100.00;52476.63;5085040;28;19940;-70
2023/02/17 02:47:41;;;;;;;;;;;;;;;-144.99;100.00;52460.31;5093140;28;19941;-71
2023/02/17 02:50:11;;;;;;;;;;;;;;;-144.99;100.00;52450.13;5080012;28;19960;-70
2023/02/17 02:52:43;;;;;;;;;;;;;;;-144.99;100.00;52464.41;5089203;28;20004;-68
2023/02/17 02:55:15;;;;;;;;;;;;;;;-144.99;100.00;52448.09;5084608;28;19940;-69
2023/02/17 02:57:45;;;;;;;;;;;;;;;-144.99;100.00;52464.41;5092493;28;20373;-68
2023/02/17 03:00:19;;;;;;;;;;;;;;;-144.99;100.00;52476.63;5088079;28;19954;-69
2023/02/17 03:02:51;;;;;;;;;;;;;;;-144.99;100.00;52484.78;5083779;28;19950;-63
2023/02/17 03:05:24;;;;;;;;;;;;;;;-144.99;100.00;52403.25;5081218;28;20286;-64
2023/02/17 03:07:54;;;;;;;;;;;;;;;-144.99;100.00;52480.72;5076991;28;20324;-64
2023/02/17 03:10:21;;;;;;;;;;;;;;;-144.99;100.00;52464.41;5087955;28;19960;-64
2023/02/17 03:12:47;;;;;;;;;;;;;;;-144.99;100.00;52444.03;5088996;28;20006;-65
2023/02/17 03:15:16;;;;;;;;;;;;;;;-144.99;100.00;52444.03;5082824;28;20393;-61
2023/02/17 03:17:42;;;;;;;;;;;;;;;-144.99;100.00;52417.53;5088069;28;19940;-62
2023/02/17 03:20:10;;;;;;;;;;;;;;;-144.99;100.00;52452.16;5088663;28;19956;-62
2023/02/17 03:22:39;;;;;;;;;;;;;;;-144.99;100.00;52460.31;5084256;28;19971;-62
2023/02/17 03:25:07;;;;;;;;;;;;;;;-144.99;100.00;52460.31;5088185;28;19940;-61
2023/02/17 03:27:33;;;;;;;;;;;;;;;-144.99;100.00;52423.63;5087622;28;19944;-62
2023/02/17 03:30:00;;;;;;;;;;;;;;;-144.99;100.00;52448.09;5088522;28;19993;-63
2023/02/17 03:32:27;;;;;;;;;;;;;;;-144.99;100.00;52419.56;5087246;28;19938;-63
2023/02/17 03:34:53;;;;;;;;;;;;;;;-144.99;100.00;52448.09;5084693;28;20278;-65
2023/02/17 03:37:20;;;;;;;;;;;;;;;-144.99;100.00;52466.44;5088938;28;19946;-66
2023/02/17 03:39:47;;;;;;;;;;;;;;;-144.99;100.00;52448.09;5084465;28;19969;-66
2023/02/17 03:42:14;;;;;;;;;;;;;;;-144.99;100.00;52458.28;5086208;28;19983;-66
2023/02/17 03:44:40;;;;;;;;;;;;;;;-144.99;100.00;52452.16;5083544;28;20441;-65
2023/02/17 03:47:07;;;;;;;;;;;;;;;-144.99;100.00;52431.78;5086538;28;20428;-65
2023/02/17 03:49:34;;;;;;;;;;;;;;;-144.99;100.00;52456.25;5085069;28;20015;-65
2023/02/17 03:52:00;;;;;;;;;;;;;;;-144.99;100.00;52444.03;5084442;28;20431;-66
2023/02/17 03:54:27;;;;;;;;;;;;;;;-144.99;100.00;52427.72;5088278;28;20014;-66
2023/02/17 03:56:55;;;;;;;;;;;;;;;-144.99;100.00;52421.59;5090001;28;20358;-66
2023/02/17 03:59:21;;;;;;;;;;;;;;;-144.99;100.00;52488.84;5087084;28;20001;-66
2023/02/17 04:01:48;;;;;;;;;;;;;;;-144.99;100.00;52448.09;5086898;28;20498;-67
2023/02/17 04:04:14;;;;;;;;;;;;;;;-144.99;100.00;52468.47;5080848;28;19981;-67
2023/02/17 04:06:41;;;;;;;;;;;;;;;-144.99;100.00;52448.09;5088669;28;19990;-67
2023/02/17 04:09:07;;;;;;;;;;;;;;;-144.99;100.00;52444.03;5085179;28;19995;-66
2023/02/17 04:11:34;;;;;;;;;;;;;;;-144.99;100.00;52427.72;5078377;28;19958;-65
2023/02/17 04:14:02;;;;;;;;;;;;;;;-144.99;100.00;52456.25;5081942;28;19960;-66
2023/02/17 04:16:28;;;;;;;;;;;;;;;-144.99;100.00;52435.88;5088221;28;19941;-65
2023/02/17 04:18:55;;;;;;;;;;;;;;;-144.99;100.00;52448.09;5086999;28;20034;-65
2023/02/17 04:21:21;;;;;;;;;;;;;;;-144.99;100.00;52472.56;5082822;28;19985;-66
2023/02/17 04:23:48;;;;;;;;;;;;;;;-144.99;100.00;52462.34;5078904;28;20025;-66
2023/02/17 04:26:14;;;;;;;;;;;;;;;-144.99;100.00;52429.75;5078524;28;19971;-70
2023/02/17 04:28:41;;;;;;;;;;;;;;;-144.99;100.00;52484.78;5081610;28;19993;-69
2023/02/17 04:31:09;;;;;;;;;;;;;;;-144.99;100.00;52468.47;5082501;28;20005;-70
2023/02/17 04:33:36;;;;;;;;;;;;;;;-144.99;100.00;52448.09;5088152;28;20001;-70
2023/02/17 04:36:03;;;;;;;;;;;;;;;-144.99;100.00;52480.72;5081404;28;20467;-70
2023/02/17 04:38:31;;;;;;;;;;;;;;;-144.99;100.00;52480.72;5086410;28;20001;-68
2023/02/17 04:40:58;;;;;;;;;;;;;;;-144.99;100.00;52431.78;5086056;28;20427;-70
2023/02/17 04:43:25;;;;;;;;;;;;;;;-144.99;100.00;52439.94;5087754;28;19973;-70
2023/02/17 04:45:52;;;;;;;;;;;;;;;-144.99;100.00;52431.78;5087671;28;20041;-70
2023/02/17 04:48:20;;;;;;;;;;;;;;;-144.99;100.00;52439.94;5089979;28;20406;-66
2023/02/17 04:50:46;;;;;;;;;;;;;;;-144.99;100.00;52452.16;5086376;28;20246;-66
2023/02/17 04:53:13;;;;;;;;;;;;;;;-144.99;100.00;52444.03;5089783;28;20001;-66
2023/02/17 04:55:40;;;;;;;;;;;;;;;-144.99;100.00;52460.31;5088265;28;19965;-67
2023/02/17 04:58:06;;;;;;;;;;;;;;;-144.99;100.00;52448.09;5091776;28;19988;-68
2023/02/17 05:00:33;;;;;;;;;;;;;;;-144.99;100.00;52399.19;5086294;28;20333;-69
2023/02/17 05:03:00;;;;;;;;;;;;;;;-144.99;100.00;52452.16;5088104;28;19994;-68
2023/02/17 05:05:27;;;;;;;;;;;;;;;-144.99;100.00;52462.34;5083412;28;19946;-69
2023/02/17 05:07:54;;;;;;;;;;;;;;;-144.99;100.00;52462.34;5089030;28;19986;-68
2023/02/17 05:10:21;;;;;;;;;;;;;;;-144.99;100.00;52472.56;5085348;28;20044;-68
2023/02/17 05:12:47;;;;;;;;;;;;;;;-144.99;100.00;52439.94;5091594;28;19949;-66
2023/02/17 05:15:14;;;;;;;;;;;;;;;-144.99;100.00;52435.88;5088024;28;20008;-66
2023/02/17 05:17:40;;;;;;;;;;;;;;;-144.99;100.00;52448.09;5090105;28;19988;-66
2023/02/17 05:20:07;;;;;;;;;;;;;;;-144.99;100.00;52470.50;5088786;28;19993;-65
2023/02/17 05:22:35;;;;;;;;;;;;;;;-144.99;100.00;52460.31;5084167;28;19951;-65
2023/02/17 05:25:02;;;;;;;;;;;;;;;-144.99;100.00;52466.44;5082320;28;19979;-66
2023/02/17 05:27:28;;;;;;;;;;;;;;;-144.99;100.00;52464.41;5089099;28;19985;-67
2023/02/17 05:29:55;;;;;;;;;;;;;;;-144.99;100.00;52456.25;5090238;28;20060;-70
2023/02/17 05:32:22;;;;;;;;;;;;;;;-144.99;100.00;52439.94;5090462;28;19989;-70
2023/02/17 05:34:48;;;;;;;;;;;;;;;-144.99;100.00;52488.84;5082363;28;20002;-69
2023/02/17 05:37:15;;;;;;;;;;;;;;;-144.99;100.00;52437.91;5089665;28;19973;-70
2023/02/17 05:39:43;;;;;;;;;;;;;;;-144.99;100.00;52476.63;5091260;28;19942;-70
2023/02/17 05:42:09;;;;;;;;;;;;;;;-144.99;100.00;52456.25;5089466;28;20045;-70
2023/02/17 05:44:36;;;;;;;;;;;;;;;-144.99;100.00;52439.94;5091330;28;19940;-70
2023/02/17 05:47:03;;;;;;;;;;;;;;;-144.99;100.00;52472.56;5083909;28;19950;-70
2023/02/17 05:49:29;;;;;;;;;;;;;;;-144.99;100.00;52435.88;5084536;28;19940;-71
2023/02/17 05:51:56;;;;;;;;;;;;;;;-144.99;100.00;52452.16;5088198;28;20332;-71
2023/02/17 05:54:22;;;;;;;;;;;;;;;-144.99;100.00;52448.09;5086246;28;20491;-71
2023/02/17 05:56:50;;;;;;;;;;;;;;;-144.99;100.00;52456.25;5086553;28;20034;-70
2023/02/17 05:59:17;;;;;;;;;;;;;;;-144.99;100.00;52415.47;5089847;28;20079;-73
2023/02/17 06:01:43;;;;;;;;;;;;;;;-144.99;100.00;52509.25;5086353;28;19963;-72
2023/02/17 06:04:10;;;;;;;;;;;;;;;-144.99;100.00;52448.09;5088948;28;19954;-74
2023/02/17 06:06:36;;;;;;;;;;;;;;;-144.99;100.00;52476.63;5087014;28;19947;-72
2023/02/17 06:09:03;;;;;;;;;;;;;;;-144.99;100.00;52492.94;5090476;28;19952;-73
2023/02/17 06:11:30;;;;;;;;;;;;;;;-144.99;100.00;52462.34;5080073;28;19995;-74
2023/02/17 06:13:58;;;;;;;;;;;;;;;-144.99;100.00;52435.88;5084620;28;20428;-75
2023/02/17 06:16:24;;;;;;;;;;;;;;;-144.99;100.00;52452.16;5087148;28;19951;-73
2023/02/17 06:18:51;;;;;;;;;;;;;;;-144.99;100.00;52488.84;4732372;28;9999877;-73
2023/02/17 06:21:17;;;;;;;;;;;;;;;-144.99;100.00;52439.94;5083056;28;19985;-73
2023/02/17 06:23:44;;;;;;;;;;;;;;;-144.99;100.00;52480.72;5077457;28;19941;-73
2023/02/17 06:26:10;;;;;;;;;;;;;;;-144.99;100.00;52494.97;5080355;28;19978;-73
2023/02/17 06:28:37;;;;;;;;;;;;;;;-144.99;100.00;52480.72;5088240;28;20015;-72
2023/02/17 06:31:05;;;;;;;;;;;;;;;-144.99;100.00;52488.84;5087688;28;20025;-72
2023/02/17 06:33:31;;;;;;;;;;;;;;;-144.99;100.00;52431.78;5086849;28;19996;-72
2023/02/17 06:35:58;;;;;;;;;;;;;;;-144.99;100.00;52456.25;5084081;28;20018;-73
2023/02/17 06:38:25;;;;;;;;;;;;;;;-144.99;100.00;52439.94;5087471;28;19949;-74
2023/02/17 06:40:51;;;;;;;;;;;;;;;-144.99;100.00;52462.34;5087289;28;20081;-73
2023/02/17 06:43:18;;;;;;;;;;;;;;;-144.99;100.00;52476.63;5085941;28;20026;-74
2023/02/17 06:45:44;;;;;;;;;;;;;;;-144.99;100.00;52444.03;5085929;28;19999;-73
2023/02/17 06:48:12;;;;;;;;;;;;;;;-144.99;100.00;52454.22;5087341;28;19992;-73
2023/02/17 06:50:39;;;;;;;;;;;;;;;-144.99;100.00;52444.03;5086961;28;20001;-74
2023/02/17 06:53:05;;;;;;;;;;;;;;;-144.99;100.00;52480.72;5090790;28;19996;-73
2023/02/17 06:55:34;;;;;;;;;;;;;;;-144.99;100.00;52456.25;5086226;28;20006;-73
2023/02/17 06:58:00;;;;;;;;;;;;;;;-144.99;100.00;52478.66;5072161;28;19952;-73
2023/02/17 07:00:27;;;;;;;;;;;;;;;-144.99;100.00;52492.94;5087023;28;20033;-73
2023/02/17 07:02:53;;;;;;;;;;;;;;;-144.99;100.00;52444.03;5087766;28;20479;-72
2023/02/17 07:05:21;;;;;;;;;;;;;;;-144.99;100.00;52472.56;5085017;28;20032;-73
2023/02/17 07:07:48;;;;;;;;;;;;;;;-144.99;100.00;52460.31;5079206;28;19997;-73
2023/02/17 07:10:14;;;;;;;;;;;;;;;-144.99;100.00;52482.75;5085440;28;20004;-73
2023/02/17 07:12:41;;;;;;;;;;;;;;;-144.99;100.00;52403.25;5073246;28;19943;-74
2023/02/17 07:15:08;;;;;;;;;;;;;;;-144.99;100.00;52486.81;5078867;28;20093;-72
2023/02/17 07:17:34;;;;;;;;;;;;;;;-144.99;100.00;52448.09;5073354;28;19988;-74
2023/02/17 07:20:01;;;;;;;;;;;;;;;-144.99;100.00;52497.00;5091035;28;20113;-73
2023/02/17 07:22:29;;;;;;;;;;;;;;;-144.99;100.00;52452.16;5082101;28;20000;-73
2023/02/17 07:24:55;;;;;;;;;;;;;;;-144.99;100.00;52468.47;5077422;28;19953;-73
2023/02/17 07:27:22;;;;;;;;;;;;;;;-144.99;100.00;52486.81;5084547;28;19945;-72
2023/02/17 07:29:48;;;;;;;;;;;;;;;-144.99;100.00;52456.25;5079483;28;20503;-73
2023/02/17 07:32:15;;;;;;;;;;;;;;;-144.99;100.00;52439.94;5074150;28;20001;-73
2023/02/17 07:34:41;;;;;;;;;;;;;;;-144.99;100.00;52476.63;5084342;28;20000;-72
2023/02/17 07:37:08;;;;;;;;;;;;;;;-144.99;100.00;52472.56;5078744;28;20540;-72
2023/02/17 07:39:36;;;;;;;;;;;;;;;-144.99;100.00;52468.47;5081881;28;20391;-73
2023/02/17 07:42:03;;;;;;;;;;;;;;;-144.99;100.00;52507.19;5085205;28;20288;-73
2023/02/17 07:44:30;;;;;;;;;;;;;;;-144.99;100.00;52472.56;5081734;28;19966;-73
2023/02/17 07:46:57;;;;;;;;;;;;;;;-144.99;100.00;52474.59;5083506;28;20196;-74
2023/02/17 07:49:23;;;;;;;;;;;;;;;-144.99;100.00;52464.41;4736436;28;10000527;-73
2023/02/17 07:51:50;;;;;;;;;;;;;;;-144.99;100.00;52492.94;5088291;28;19969;-73
2023/02/17 07:54:17;;;;;;;;;;;;;;;-144.99;100.00;52488.84;5076347;28;20093;-73
2023/02/17 07:56:45;;;;;;;;;;;;;;;-144.99;100.00;52456.25;5078514;28;20049;-73
2023/02/17 07:59:13;;;;;;;;;;;;;;;-144.99;100.00;52435.88;5084197;28;19977;-72
2023/02/17 08:01:39;;;;;;;;;;;;;;;-144.99;100.00;52456.25;5086911;28;20465;-72
2023/02/17 08:04:06;;;;;;;;;;;;;;;-144.99;100.00;52472.56;5072227;28;19945;-72
2023/02/17 08:06:32;;;;;;;;;;;;;;;-144.99;100.00;52468.47;5076374;28;20120;-72
2023/02/17 08:14:28;;;;;;;;;;;;;;;-144.99;100.00;52407.31;5082717;28;19969;-72
2023/02/17 08:16:55;;;;;;;;;;;;;;;-144.99;100.00;52448.09;5080233;28;19949;-73
2023/02/17 08:19:22;;;;;;;;;;;;;;;-144.99;100.00;52476.63;5087060;28;19949;-72
2023/02/17 08:21:48;;;;;;;;;;;;;;;-144.99;100.00;52488.84;5082615;28;20500;-74
2023/02/17 08:24:16;;;;;;;;;;;;;;;-144.99;100.00;52452.16;5086625;28;20469;-72
2023/02/17 08:26:42;;;;;;;;;;;;;;;-144.99;100.00;52482.75;5077681;28;19942;-72
2023/02/17 08:29:09;;;;;;;;;;;;;;;-144.99;100.00;52480.72;5088553;28;20356;-73
2023/02/17 08:31:37;;;;;;;;;;;;;;;-144.99;100.00;52484.78;5081036;28;20023;-73
2023/02/17 08:34:05;;;;;;;;;;;;;;;-144.99;100.00;52476.63;5078985;28;20281;-73
2023/02/17 08:36:31;;;;;;;;;;;;;;;-144.99;100.00;52431.78;5080894;28;20058;-74
2023/02/17 08:38:58;;;;;;;;;;;;;;;-144.99;100.00;52480.72;5085295;28;19953;-72
2023/02/17 08:41:27;;;;;;;;;;;;;;;-144.99;100.00;52472.56;5088977;28;20513;-72
2023/02/17 08:43:54;;;;;;;;;;;;;;;-144.99;100.00;52476.63;5083698;28;19951;-72
2023/02/17 08:46:21;;;;;;;;;;;;;;;-144.99;100.00;52439.94;5091938;28;19951;-73
2023/02/17 08:48:49;;;;;;;;;;;;;;;-144.99;100.00;52488.84;5088555;28;19947;-74
2023/02/17 08:51:17;;;;;;;;;;;;;;;-144.99;100.00;52444.03;5097997;28;20024;-73
2023/02/17 08:53:44;;;;;;;;;;;;;;;-144.99;100.00;52448.09;5092859;28;20004;-74
2023/02/17 08:56:11;;;;;;;;;;;;;;;-144.99;100.00;52458.28;5084375;28;19975;-73
2023/02/17 08:58:37;;;;;;;;;;;;;;;-144.99;100.00;52448.09;5083346;28;20401;-74
2023/02/17 09:01:09;;;;;;;;;;;;;;;-144.99;100.00;52476.63;5075964;28;20314;-75
2023/02/17 09:03:36;;;;;;;;;;;;;;;-144.99;100.00;52452.16;5083387;28;19963;-73
2023/02/17 09:06:05;;;;;;;;;;;;;;;-144.99;100.00;52444.03;5087211;28;19941;-74
2023/02/17 09:08:31;;;;;;;;;;;;;;;-144.99;100.00;52505.16;5083552;28;20037;-74
2023/02/17 09:10:59;;;;;;;;;;;;;;;-144.99;100.00;52435.88;5081094;28;20055;-76
2023/02/17 09:13:26;;;;;;;;;;;;;;;-144.99;100.00;52444.03;5085326;28;19941;-75
2023/02/17 09:15:53;;;;;;;;;;;;;;;-144.99;100.00;52541.84;5092438;28;20464;-75
2023/02/17 09:18:20;;;;;;;;;;;;;;;-144.99;100.00;52462.34;5092521;28;20007;-75
2023/02/17 09:20:47;;;;;;;;;;;;;;;-144.99;100.00;52466.44;5077128;28;19992;-76
2023/02/17 09:23:15;;;;;;;;;;;;;;;-144.99;100.00;52464.41;5083827;28;20398;-75
2023/02/17 09:25:42;;;;;;;;;;;;;;;-144.99;100.00;52464.41;5071073;28;19976;-76
2023/02/17 09:28:09;;;;;;;;;;;;;;;-144.99;100.00;52472.56;5079819;28;20107;-75
2023/02/17 09:30:36;;;;;;;;;;;;;;;-144.99;100.00;52437.91;5070429;28;20033;-75
2023/02/17 09:33:04;;;;;;;;;;;;;;;-144.99;100.00;52476.63;5102297;28;20033;-73
2023/02/17 09:35:31;;;;;;;;;;;;;;;-144.99;100.00;52448.09;5090770;28;19964;-75
2023/02/17 09:37:58;;;;;;;;;;;;;;;-144.99;100.00;52456.25;5091699;28;20051;-75
2023/02/17 09:40:30;;;;;;;;;;;;;;;-144.99;100.00;52452.16;5085621;28;19956;-75
2023/02/17 09:42:57;;;;;;;;;;;;;;;-144.99;100.00;52427.72;5085782;28;19940;-73
2023/02/17 09:45:27;;;;;;;;;;;;;;;-144.99;100.00;52480.72;5087529;28;20014;-74
2023/02/17 09:47:57;;;;;;;;;;;;;;;-144.99;100.00;52476.63;5078002;28;19971;-73
2023/02/17 09:50:26;;;;;;;;;;;;;;;-144.99;100.00;52460.31;5088974;28;20005;-73
2023/02/17 09:52:57;;;;;;;;;;;;;;;-144.99;100.00;52433.81;5085025;28;20323;-73
2023/02/17 09:55:25;;;;;;;;;;;;;;;-144.99;100.00;52480.72;5087177;28;20256;-73
2023/02/17 09:57:56;;;;;;;;;;;;;;;-144.99;100.00;52452.16;5094986;28;20060;-75
2023/02/17 10:00:25;;;;;;;;;;;;;;;-144.99;100.00;52505.16;5078012;28;20943;-75
2023/02/17 10:02:55;;;;;;;;;;;;;;;-144.99;100.00;52464.41;5090530;28;19938;-74
2023/02/17 10:05:23;;;;;;;;;;;;;;;-144.99;100.00;52478.66;5078428;28;19943;-73
2023/02/17 10:07:52;;;;;;;;;;;;;;;-144.99;100.00;52468.47;5080921;28;19956;-75
2023/02/17 10:10:21;;;;;;;;;;;;;;;-144.99;100.00;52472.56;5083215;28;20049;-74
2023/02/17 10:12:50;;;;;;;;;;;;;;;-144.99;100.00;52415.47;5072307;28;19954;-75
2023/02/17 10:15:20;;;;;;;;;;;;;;;-144.99;100.00;52454.22;5072387;28;19963;-73
2023/02/17 10:17:50;;;;;;;;;;;;;;;-144.99;100.00;52452.16;5085386;28;20046;-73
2023/02/17 10:20:19;;;;;;;;;;;;;;;-144.99;100.00;52488.84;5080800;28;20001;-73
2023/02/17 10:22:48;;;;;;;;;;;;;;;-144.99;100.00;52456.25;5084555;28;19942;-74
2023/02/17 10:25:15;;;;;;;;;;;;;;;-144.99;100.00;52456.25;5080821;28;20681;-73
2023/02/17 10:27:42;;;;;;;;;;;;;;;-144.99;100.00;52521.47;5075844;28;20040;-72
2023/02/17 10:30:18;;;;;;;;;;;;;;;-144.99;100.00;52472.56;5081498;28;20331;-74
2023/02/17 10:32:51;;;;;;;;;;;;;;;-144.99;100.00;52476.63;5087736;28;19984;-75
2023/02/17 10:35:21;;;;;;;;;;;;;;;-144.99;100.00;52462.34;5083875;28;19965;-74
2023/02/17 10:37:49;;;;;;;;;;;;;;;-144.99;100.00;52482.75;5081265;28;19995;-74
2023/02/17 10:40:18;;;;;;;;;;;;;;;-144.99;100.00;52497.00;5085581;28;20009;-74
2023/02/17 10:42:45;;;;;;;;;;;;;;;-144.99;100.00;52521.47;5092248;28;19969;-75
2023/02/17 10:45:19;;;;;;;;;;;;;;;-144.99;100.00;52494.97;5080030;28;20511;-74
2023/02/17 10:47:46;;;;;;;;;;;;;;;-144.99;100.00;52460.31;5080597;28;19953;-72
2023/02/17 10:50:20;;;;;;;;;;;;;;;-144.99;100.00;52456.25;5095711;28;20017;-73
2023/02/17 10:52:46;;;;;;;;;;;;;;;-144.99;100.00;52501.09;5091668;28;20004;-74
2023/02/17 10:55:18;;;;;;;;;;;;;;;-144.99;100.00;52484.78;5083603;28;20014;-73
2023/02/17 10:57:45;;;;;;;;;;;;;;;-144.99;100.00;52492.94;5086089;28;19975;-73
2023/02/17 11:00:15;;;;;;;;;;;;;;;-144.99;100.00;52476.63;5086904;28;19958;-74
2023/02/17 11:02:43;;;;;;;;;;;;;;;-144.99;100.00;52437.91;5091242;28;19940;-72
2023/02/17 11:05:21;;;;;;;;;;;;;;;-144.99;100.00;52446.06;5084466;28;20459;-71
2023/02/17 11:07:48;;;;;;;;;;;;;;;-144.99;100.00;52460.31;5084205;28;20165;-71
2023/02/17 11:10:22;;;;;;;;;;;;;;;-144.99;100.00;52452.16;5082304;28;19961;-74
2023/02/17 11:12:49;;;;;;;;;;;;;;;-144.99;100.00;52427.72;5072481;28;19949;-72
2023/02/17 11:15:17;;;;;;;;;;;;;;;-144.99;100.00;52460.31;5083258;28;20463;-72
2023/02/17 11:17:45;;;;;;;;;;;;;;;-144.99;100.00;52488.84;5082766;28;20372;-73
2023/02/17 11:23:21;;;;;;;;;;;;;;;-144.99;100.00;52441.97;5120841;27;19942;-72
2023/02/17 11:25:55;;;;;;;;;;;;;;;-144.99;100.00;52439.94;5118794;28;19967;-72
2023/02/17 11:28:23;;;;;;;;;;;;;;;-144.99;100.00;52439.94;5117530;27;20001;-73
2023/02/17 11:30:51;;;;;;;;;;;;;;;-144.99;100.00;52435.88;5118496;27;20302;-74
2023/02/17 11:33:21;;;;;;;;;;;;;;;-144.99;100.00;52492.94;5119036;27;19982;-73
2023/02/17 11:35:49;;;;;;;;;;;;;;;-144.99;100.00;52468.47;5115463;27;20636;-73
2023/02/17 11:38:18;;;;;;;;;;;;;;;-144.99;100.00;52452.16;5111228;28;20589;-72
2023/02/17 11:40:52;;;;;;;;;;;;;;;-144.99;100.00;52484.78;5111251;27;19947;-74
2023/02/17 11:43:19;;;;;;;;;;;;;;;-144.99;100.00;52468.47;5117885;27;20115;-73
2023/02/17 11:45:49;;;;;;;;;;;;;;;-144.99;100.00;52439.94;5118498;27;20031;-74
2023/02/17 11:48:30;;;;;;;;;;;;;;;-144.99;100.00;52460.31;5115047;27;20314;-73
2023/02/17 11:51:00;;;;;;;;;;;;;;;-144.99;100.00;52492.94;5113878;28;20020;-74
2023/02/17 11:53:33;;;;;;;;;;;;;;;-144.99;100.00;52484.78;5116170;28;20045;-73
2023/02/17 11:56:06;;;;;;;;;;;;;;;-144.99;100.00;52452.16;5117278;27;20008;-72
2023/02/17 11:58:39;;;;;;;;;;;;;;;-144.99;100.00;52480.72;5114882;28;20353;-73
2023/02/17 12:01:16;;;;;;;;;;;;;;;-144.99;100.00;52448.09;5119625;27;20509;-73
2023/02/17 12:04:00;;;;;;;;;;;;;;;-144.99;100.00;52452.16;5118516;28;20298;-72
2023/02/17 12:06:33;;;;;;;;;;;;;;;-144.99;100.00;52456.25;5115457;27;19996;-72
2023/02/17 12:09:06;;;;;;;;;;;;;;;-144.99;100.00;52472.56;5119968;28;20381;-72
2023/02/17 12:11:36;;;;;;;;;;;;;;;-144.99;100.00;52413.44;5116394;28;19999;-73
2023/02/17 12:14:11;;;;;;;;;;;;;;;-144.99;100.00;52431.78;5110099;27;20412;-72
2023/02/17 12:16:43;;;;;;;;;;;;;;;-144.99;100.00;52476.63;5116904;28;20009;-73
2023/02/17 12:19:16;;;;;;;;;;;;;;;-144.99;100.00;52476.63;5107996;27;20437;-74
2023/02/17 12:21:51;;;;;;;;;;;;;;;-144.99;100.00;52480.72;5111079;28;20453;-72
2023/02/17 12:24:28;;;;;;;;;;;;;;;-144.99;100.00;52497.00;5115131;27;20050;-72
2023/02/17 12:27:03;;;;;;;;;;;;;;;-144.99;100.00;52448.09;5113758;28;20052;-73
2023/02/17 12:29:40;;;;;;;;;;;;;;;-144.99;100.00;52454.22;5113475;28;19991;-73
2023/02/17 12:32:13;;;;;;;;;;;;;;;-144.99;100.00;52456.25;5116450;28;19954;-75